createdAt,value
2022-11-27T00:01:28.224Z,13.73
2022-11-27T00:03:57.435Z,14.80
2022-11-27T00:06:27.704Z,14.37
2022-11-27T00:08:57.849Z,16.37
2022-11-27T00:11:27.636Z,16.30
2022-11-27T00:13:57.129Z,16.93
2022-11-27T00:16:26.284Z,17.33
2022-11-27T00:18:54.879Z,15.63
2022-11-27T00:21:25.691Z,16.17
2022-11-27T00:23:55.062Z,17.23
2022-11-27T00:26:24.052Z,16.83
2022-11-27T00:28:52.593Z,15.90
2022-11-27T00:31:27.412Z,15.73
2022-11-27T00:33:55.937Z,16.00
2022-11-27T00:36:24.326Z,15.80
2022-11-27T00:38:52.939Z,15.83
2022-11-27T00:41:22.990Z,15.87
2022-11-27T00:43:51.795Z,15.93
2022-11-27T00:46:28.091Z,16.73
2022-11-27T00:48:57.183Z,16.00
2022-11-27T00:51:26.979Z,16.60
2022-11-27T00:53:56.416Z,16.37
2022-11-27T00:56:26.303Z,16.20
2022-11-27T00:58:55.151Z,16.13
2022-11-27T01:01:26.214Z,16.13
2022-11-27T01:03:54.342Z,17.03
2022-11-27T01:06:22.574Z,17.20
2022-11-27T01:08:51.081Z,16.63
2022-11-27T01:11:24.917Z,16.63
2022-11-27T01:13:53.400Z,15.50
2022-11-27T01:16:24.013Z,15.43
2022-11-27T01:18:55.932Z,15.13
2022-11-27T01:21:23.972Z,16.50
2022-11-27T01:23:53.009Z,14.33
2022-11-27T01:26:21.090Z,15.83
2022-11-27T01:28:49.403Z,15.87
2022-11-27T01:31:19.380Z,16.33
2022-11-27T01:33:48.376Z,15.97
2022-11-27T01:36:17.876Z,16.30
2022-11-27T01:38:45.973Z,17.03
2022-11-27T01:41:17.449Z,15.87
2022-11-27T01:43:47.844Z,16.70
2022-11-27T01:46:28.376Z,16.77
2022-11-27T01:49:04.470Z,14.90
2022-11-27T01:51:34.370Z,15.03
2022-11-27T01:54:02.426Z,16.53
2022-11-27T01:56:31.097Z,18.87
2022-11-27T01:59:01.245Z,19.07
2022-11-27T02:01:29.296Z,20.53
2022-11-27T02:04:02.040Z,20.80
2022-11-27T02:06:30.575Z,19.63
2022-11-27T02:09:00.114Z,20.77
2022-11-27T02:11:40.145Z,20.37
2022-11-27T02:14:17.611Z,20.13
2022-11-27T02:16:57.457Z,19.50
2022-11-27T02:19:45.252Z,19.57
2022-11-27T02:22:28.722Z,19.80
2022-11-27T02:25:08.487Z,20.38
2022-11-27T02:27:58.800Z,20.70
2022-11-27T02:30:31.952Z,20.07
2022-11-27T02:33:02.737Z,19.30
2022-11-27T02:35:35.709Z,19.43
2022-11-27T02:38:08.920Z,19.53
2022-11-27T02:40:41.136Z,20.57
2022-11-27T02:43:14.323Z,20.10
2022-11-27T02:45:45.488Z,18.63
2022-11-27T02:48:16.594Z,18.90
2022-11-27T02:50:46.605Z,19.73
2022-11-27T02:53:20.074Z,18.43
2022-11-27T02:55:50.047Z,20.13
2022-11-27T02:58:22.135Z,18.33
2022-11-27T03:00:52.104Z,19.03
2022-11-27T03:03:25.811Z,18.97
2022-11-27T03:06:00.216Z,17.60
2022-11-27T03:08:34.540Z,17.47
2022-11-27T03:11:05.895Z,16.27
2022-11-27T03:13:38.531Z,16.97
2022-11-27T03:16:13.448Z,16.10
2022-11-27T03:18:47.894Z,17.30
2022-11-27T03:21:28.790Z,16.83
2022-11-27T03:23:58.071Z,15.17
2022-11-27T03:26:26.572Z,14.63
2022-11-27T03:28:57.038Z,14.80
2022-11-27T03:31:27.585Z,14.30
2022-11-27T03:33:56.153Z,14.17
2022-11-27T03:36:24.788Z,15.07
2022-11-27T03:38:55.405Z,15.90
2022-11-27T03:41:31.565Z,15.20
2022-11-27T03:44:09.273Z,16.33
2022-11-27T03:46:48.616Z,16.20
2022-11-27T03:49:25.752Z,15.23
2022-11-27T03:52:00.004Z,15.63
2022-11-27T03:54:41.116Z,15.23
2022-11-27T03:57:19.096Z,14.63
2022-11-27T03:59:50.640Z,14.60
2022-11-27T04:02:31.602Z,14.00
2022-11-27T04:04:59.721Z,14.87
2022-11-27T04:07:28.153Z,15.30
2022-11-27T04:09:57.115Z,15.53
2022-11-27T04:12:25.090Z,15.77
2022-11-27T04:14:53.315Z,14.93
2022-11-27T04:17:22.893Z,15.13
2022-11-27T04:19:50.930Z,14.90
2022-11-27T04:22:19.002Z,14.60
2022-11-27T04:24:47.082Z,14.63
2022-11-27T04:27:15.243Z,16.07
2022-11-27T04:29:43.346Z,14.77
2022-11-27T04:32:11.811Z,15.20
2022-11-27T04:34:41.432Z,15.30
2022-11-27T04:37:09.680Z,14.90
2022-11-27T04:39:37.773Z,14.47
2022-11-27T04:42:05.927Z,14.20
2022-11-27T04:44:34.014Z,15.30
2022-11-27T04:47:02.909Z,16.77
2022-11-27T04:49:31.215Z,15.73
2022-11-27T04:52:00.792Z,16.27
2022-11-27T04:54:29.846Z,15.47
2022-11-27T04:56:58.098Z,15.57
2022-11-27T04:59:26.083Z,16.80
2022-11-27T05:01:54.667Z,15.90
2022-11-27T05:04:22.786Z,15.90
2022-11-27T05:06:51.164Z,17.40
2022-11-27T05:09:20.772Z,16.97
2022-11-27T05:11:49.323Z,16.27
2022-11-27T05:14:18.266Z,16.93
2022-11-27T05:16:48.265Z,16.77
2022-11-27T05:19:17.517Z,16.83
2022-11-27T05:21:46.769Z,16.87
2022-11-27T05:24:15.776Z,17.40
2022-11-27T05:26:45.553Z,16.40
2022-11-27T05:29:14.515Z,17.40
2022-11-27T05:31:43.306Z,16.73
2022-11-27T05:34:11.576Z,18.23
2022-11-27T05:36:39.915Z,18.63
2022-11-27T05:39:09.186Z,17.30
2022-11-27T05:41:38.921Z,18.40
2022-11-27T05:44:08.353Z,17.37
2022-11-27T05:46:36.455Z,17.60
2022-11-27T05:49:06.354Z,18.60
2022-11-27T05:51:34.526Z,16.50
2022-11-27T05:54:02.574Z,17.47
2022-11-27T05:56:30.659Z,17.33
2022-11-27T05:58:59.603Z,18.77
2022-11-27T06:01:29.191Z,19.10
2022-11-27T06:03:57.191Z,17.17
2022-11-27T06:06:25.194Z,18.93
2022-11-27T06:08:53.633Z,20.70
2022-11-27T06:11:24.112Z,18.30
2022-11-27T06:13:52.620Z,17.93
2022-11-27T06:16:22.647Z,17.43
2022-11-27T06:18:53.293Z,19.17
2022-11-27T06:21:22.305Z,19.50
2022-11-27T06:23:50.713Z,18.60
2022-11-27T06:26:23.533Z,18.50
2022-11-27T06:28:51.875Z,18.80
2022-11-27T06:31:22.072Z,18.00
2022-11-27T06:33:53.688Z,17.50
2022-11-27T06:36:23.979Z,16.30
2022-11-27T06:38:52.538Z,18.50
2022-11-27T06:41:23.060Z,18.17
2022-11-27T06:43:51.365Z,17.77
2022-11-27T06:46:22.009Z,17.97
2022-11-27T06:48:53.381Z,17.37
2022-11-27T06:51:23.606Z,16.43
2022-11-27T06:53:52.554Z,16.67
2022-11-27T06:56:23.206Z,16.73
2022-11-27T06:58:53.417Z,18.63
2022-11-27T07:01:22.591Z,17.00
2022-11-27T07:03:52.200Z,16.20
2022-11-27T07:06:22.017Z,12.97
2022-11-27T07:08:50.348Z,14.73
2022-11-27T07:11:20.715Z,16.10
2022-11-27T07:13:49.685Z,13.97
2022-11-27T07:16:18.794Z,14.50
2022-11-27T07:18:49.599Z,14.10
2022-11-27T07:21:19.406Z,13.23
2022-11-27T07:23:47.838Z,13.97
2022-11-27T07:26:19.140Z,14.17
2022-11-27T07:28:47.434Z,14.30
2022-11-27T07:31:18.034Z,14.50
2022-11-27T07:33:46.238Z,13.33
2022-11-27T07:36:16.336Z,13.43
2022-11-27T07:38:46.301Z,14.03
2022-11-27T07:41:15.015Z,14.30
2022-11-27T07:43:44.362Z,15.03
2022-11-27T07:46:15.262Z,15.77
2022-11-27T07:48:44.121Z,13.40
2022-11-27T07:51:14.399Z,14.77
2022-11-27T07:53:43.263Z,14.60
2022-11-27T07:56:14.692Z,14.10
2022-11-27T07:58:42.846Z,13.20
2022-11-27T08:01:13.475Z,14.13
2022-11-27T08:03:44.209Z,15.33
2022-11-27T08:06:18.355Z,15.30
2022-11-27T08:08:47.301Z,15.63
2022-11-27T08:11:22.028Z,15.00
2022-11-27T08:13:50.739Z,14.93
2022-11-27T08:16:18.845Z,15.20
2022-11-27T08:18:46.979Z,14.90
2022-11-27T08:21:15.007Z,14.73
2022-11-27T08:23:43.965Z,14.60
2022-11-27T08:26:13.718Z,14.20
2022-11-27T08:28:44.053Z,14.03
2022-11-27T08:31:14.013Z,15.33
2022-11-27T08:33:42.823Z,15.13
2022-11-27T08:36:17.688Z,14.53
2022-11-27T08:38:46.309Z,17.50
2022-11-27T08:41:14.419Z,16.30
2022-11-27T08:43:43.861Z,16.17
2022-11-27T08:46:12.902Z,15.60
2022-11-27T08:48:41.872Z,16.23
2022-11-27T08:51:12.631Z,15.33
2022-11-27T08:53:41.413Z,16.33
2022-11-27T08:56:11.692Z,16.67
2022-11-27T08:58:41.256Z,16.73
2022-11-27T09:01:13.748Z,14.83
2022-11-27T09:03:42.143Z,15.23
2022-11-27T09:06:12.080Z,15.00
2022-11-27T09:08:40.935Z,15.70
2022-11-27T09:11:10.788Z,16.60
2022-11-27T09:13:40.404Z,17.37
2022-11-27T09:16:12.668Z,16.63
2022-11-27T09:18:42.029Z,15.83
2022-11-27T09:21:12.406Z,14.70
2022-11-27T09:23:40.937Z,16.20
2022-11-27T09:26:11.407Z,15.77
2022-11-27T09:28:41.507Z,15.77
2022-11-27T09:31:13.601Z,15.87
2022-11-27T09:33:43.186Z,14.93
2022-11-27T09:36:13.369Z,15.67
2022-11-27T09:38:42.538Z,15.57
2022-11-27T09:41:40.234Z,15.90
2022-11-27T09:44:24.851Z,15.80
2022-11-27T09:46:56.691Z,15.40
2022-11-27T09:49:29.573Z,15.97
2022-11-27T09:52:04.488Z,16.13
2022-11-27T09:54:39.000Z,15.27
2022-11-27T09:57:11.255Z,15.47
2022-11-27T09:59:46.646Z,14.87
2022-11-27T10:02:20.264Z,17.30
2022-11-27T10:05:12.819Z,13.80
2022-11-27T10:07:49.466Z,15.10
2022-11-27T10:10:32.445Z,14.40
2022-11-27T10:13:09.673Z,15.00
2022-11-27T10:15:43.627Z,15.37
2022-11-27T10:18:22.069Z,15.20
2022-11-27T10:20:52.387Z,13.20
2022-11-27T10:23:28.549Z,13.73
2022-11-27T10:26:02.398Z,13.37
2022-11-27T10:28:37.926Z,15.37
2022-11-27T10:31:13.255Z,13.60
2022-11-27T10:33:49.286Z,16.00
2022-11-27T10:36:23.528Z,14.80
2022-11-27T10:38:52.894Z,17.00
2022-11-27T10:41:48.244Z,15.37
2022-11-27T10:44:27.756Z,14.13
2022-11-27T10:47:02.975Z,14.23
2022-11-27T10:49:35.324Z,13.53
2022-11-27T10:52:03.386Z,15.23
2022-11-27T10:54:39.941Z,14.87
2022-11-27T10:57:30.182Z,12.87
2022-11-27T11:00:06.610Z,13.77
2022-11-27T11:02:38.805Z,13.87
2022-11-27T11:05:41.404Z,12.70
2022-11-27T11:08:19.133Z,12.00
2022-11-27T11:10:52.796Z,12.53
2022-11-27T11:13:22.970Z,13.17
2022-11-27T11:15:54.211Z,13.60
2022-11-27T11:18:24.369Z,15.30
2022-11-27T11:20:55.872Z,14.13
2022-11-27T11:23:28.998Z,14.57
2022-11-27T11:26:00.208Z,14.10
2022-11-27T11:28:29.449Z,16.60
2022-11-27T11:31:01.370Z,15.33
2022-11-27T11:33:29.998Z,13.10
2022-11-27T11:36:09.769Z,14.77
2022-11-27T11:38:38.851Z,12.30
2022-11-27T11:41:09.742Z,12.93
2022-11-27T11:43:38.924Z,11.83
2022-11-27T11:46:17.245Z,12.70
2022-11-27T11:48:59.091Z,11.23
2022-11-27T11:52:09.114Z,10.97
2022-11-27T11:54:50.222Z,9.97
2022-11-27T11:57:58.333Z,10.47
2022-11-27T12:00:58.589Z,11.20
2022-11-27T12:03:38.313Z,11.90
2022-11-27T12:06:28.826Z,9.90
2022-11-27T12:09:10.441Z,10.50
2022-11-27T12:11:46.937Z,9.83
2022-11-27T12:14:37.037Z,10.60
2022-11-27T12:17:18.922Z,9.67
2022-11-27T12:20:07.331Z,10.33
2022-11-27T12:23:00.509Z,10.17
2022-11-27T12:25:34.625Z,9.63
2022-11-27T12:28:20.126Z,7.50
2022-11-27T12:30:55.534Z,7.47
2022-11-27T12:33:35.489Z,5.70
2022-11-27T12:36:13.848Z,5.50
2022-11-27T12:39:04.413Z,5.57
2022-11-27T12:42:00.434Z,7.80
2022-11-27T12:44:38.770Z,12.17
2022-11-27T12:47:12.465Z,14.83
2022-11-27T12:49:46.435Z,3.40
2022-11-27T12:52:21.131Z,2.97
2022-11-27T12:54:56.027Z,2.70
2022-11-27T12:57:37.664Z,3.30
2022-11-27T13:00:15.466Z,4.53
2022-11-27T13:02:51.667Z,5.13
2022-11-27T13:05:25.649Z,4.73
2022-11-27T13:08:00.516Z,4.10
2022-11-27T13:10:35.919Z,4.77
2022-11-27T13:13:08.086Z,6.00
2022-11-27T13:15:43.945Z,6.03
2022-11-27T13:18:20.591Z,5.23
2022-11-27T13:20:52.902Z,5.53
2022-11-27T13:23:21.707Z,4.70
2022-11-27T13:25:54.689Z,5.17
2022-11-27T13:28:28.432Z,4.90
2022-11-27T13:31:01.890Z,5.40
2022-11-27T13:33:38.510Z,4.23
2022-11-27T13:36:09.682Z,4.87
2022-11-27T13:38:42.082Z,6.30
2022-11-27T13:41:20.755Z,4.90
2022-11-27T13:43:50.390Z,4.10
2022-11-27T13:46:25.960Z,3.60
2022-11-27T13:48:57.864Z,5.70
2022-11-27T13:51:28.992Z,6.63
2022-11-27T13:54:10.274Z,6.80
2022-11-27T13:56:38.632Z,7.97
2022-11-27T13:59:18.043Z,8.00
2022-11-27T14:02:01.954Z,9.43
2022-11-27T14:04:32.117Z,12.20
2022-11-27T14:07:03.803Z,12.90
2022-11-27T14:09:39.855Z,13.47
2022-11-27T14:12:22.188Z,9.33
2022-11-27T14:15:04.512Z,6.33
2022-11-27T14:17:40.558Z,4.67
2022-11-27T14:20:24.320Z,3.47
2022-11-27T14:23:11.758Z,4.80
2022-11-27T14:25:41.697Z,5.23
2022-11-27T14:28:16.203Z,5.10
2022-11-27T14:30:49.106Z,5.70
2022-11-27T14:33:24.465Z,5.33
2022-11-27T14:35:54.660Z,4.67
2022-11-27T14:38:26.602Z,5.50
2022-11-27T14:40:55.973Z,4.27
2022-11-27T14:43:26.219Z,5.10
2022-11-27T14:45:56.187Z,5.67
2022-11-27T14:48:30.781Z,5.47
2022-11-27T14:50:59.776Z,5.30
2022-11-27T14:53:29.148Z,5.77
2022-11-27T14:55:59.708Z,5.20
2022-11-27T14:58:29.987Z,3.60
2022-11-27T15:01:00.903Z,4.80
2022-11-27T15:03:30.790Z,3.63
2022-11-27T15:06:00.799Z,5.27
2022-11-27T15:08:30.950Z,7.20
2022-11-27T15:11:01.399Z,8.17
2022-11-27T15:13:32.506Z,7.87
2022-11-27T15:16:05.211Z,7.43
2022-11-27T15:18:38.414Z,9.17
2022-11-27T15:21:11.669Z,8.47
2022-11-27T15:23:46.061Z,7.87
2022-11-27T15:26:19.942Z,8.23
2022-11-27T15:28:57.302Z,8.10
2022-11-27T15:31:32.742Z,7.63
2022-11-27T15:34:21.726Z,8.40
2022-11-27T15:36:52.977Z,9.03
2022-11-27T15:39:23.862Z,9.60
2022-11-27T15:41:54.931Z,10.40
2022-11-27T15:44:24.063Z,9.67
2022-11-27T15:46:54.315Z,9.37
2022-11-27T15:49:24.176Z,9.03
2022-11-27T15:51:53.061Z,11.00
2022-11-27T15:54:21.271Z,11.27
2022-11-27T15:56:49.513Z,10.90
2022-11-27T15:59:20.747Z,11.03
2022-11-27T16:01:49.991Z,10.67
2022-11-27T16:04:18.381Z,10.13
2022-11-27T16:06:47.868Z,10.80
2022-11-27T16:09:16.005Z,10.53
2022-11-27T16:11:44.217Z,10.20
2022-11-27T16:14:12.886Z,11.33
2022-11-27T16:16:41.030Z,11.50
2022-11-27T16:19:12.237Z,9.83
2022-11-27T16:21:40.448Z,10.40
2022-11-27T16:24:13.002Z,11.73
2022-11-27T16:26:41.436Z,11.67
2022-11-27T16:29:10.870Z,11.07
2022-11-27T16:31:39.025Z,9.50
2022-11-27T16:34:07.628Z,11.73
2022-11-27T16:36:36.147Z,11.50
2022-11-27T16:39:04.339Z,10.33
2022-11-27T16:41:33.858Z,11.10
2022-11-27T16:44:02.654Z,9.93
2022-11-27T16:46:32.126Z,10.87
2022-11-27T16:49:01.574Z,11.83
2022-11-27T16:51:32.106Z,13.00
2022-11-27T16:54:02.363Z,12.03
2022-11-27T16:56:31.815Z,12.80
2022-11-27T16:59:03.328Z,13.57
2022-11-27T17:01:34.480Z,13.07
2022-11-27T17:04:04.885Z,14.03
2022-11-27T17:06:35.129Z,12.97
2022-11-27T17:09:05.774Z,11.30
2022-11-27T17:11:36.018Z,14.67
2022-11-27T17:14:07.342Z,13.20
2022-11-27T17:16:36.253Z,14.57
2022-11-27T17:19:04.325Z,13.77
2022-11-27T17:21:35.222Z,14.43
2022-11-27T17:24:10.072Z,17.80
2022-11-27T17:26:43.662Z,21.93
2022-11-27T17:29:14.723Z,20.77
2022-11-27T17:31:43.170Z,19.83
2022-11-27T17:34:13.748Z,20.73
2022-11-27T17:36:44.179Z,20.43
2022-11-27T17:39:14.696Z,23.03
2022-11-27T17:41:45.141Z,22.17
2022-11-27T17:44:15.245Z,22.07
2022-11-27T17:46:45.537Z,19.60
2022-11-27T17:49:13.545Z,21.20
2022-11-27T17:51:41.697Z,19.77
2022-11-27T17:54:09.726Z,19.60
2022-11-27T17:56:37.927Z,20.03
2022-11-27T17:59:05.989Z,21.17
2022-11-27T18:01:35.615Z,17.63
2022-11-27T18:04:05.568Z,18.17
2022-11-27T18:06:34.603Z,19.73
2022-11-27T18:09:02.938Z,21.80
2022-11-27T18:11:33.931Z,20.60
2022-11-27T18:14:02.980Z,23.40
2022-11-27T18:16:33.362Z,21.80
2022-11-27T18:19:05.047Z,25.30
2022-11-27T18:21:33.171Z,23.37
2022-11-27T18:29:39.014Z,22.97
2022-11-27T18:32:07.876Z,23.23
2022-11-27T18:34:37.645Z,23.27
2022-11-27T18:37:06.014Z,23.00
2022-11-27T18:39:35.412Z,21.73
2022-11-27T18:42:05.140Z,20.07
2022-11-27T18:44:33.573Z,19.30
2022-11-27T18:47:02.035Z,22.17
2022-11-27T18:49:30.010Z,22.70
2022-11-27T18:51:59.557Z,22.23
2022-11-27T18:54:27.795Z,22.07
2022-11-27T18:56:56.013Z,22.17
2022-11-27T18:59:24.299Z,23.20
2022-11-27T19:01:52.550Z,23.93
2022-11-27T19:04:20.884Z,22.00
2022-11-27T19:06:48.974Z,23.33
2022-11-27T19:09:19.262Z,23.30
2022-11-27T19:11:47.372Z,22.10
2022-11-27T19:14:15.614Z,22.47
2022-11-27T19:16:46.635Z,22.63
2022-11-27T19:22:07.653Z,23.40
2022-11-27T19:24:37.911Z,22.53
2022-11-27T19:27:06.153Z,26.53
2022-11-27T19:29:36.129Z,25.77
2022-11-27T19:32:04.480Z,25.23
2022-11-27T19:34:33.070Z,19.60
2022-11-27T19:37:01.142Z,21.67
2022-11-27T19:39:29.591Z,21.83
2022-11-27T19:41:59.149Z,21.07
2022-11-27T19:44:27.686Z,20.67
2022-11-27T19:46:55.830Z,23.47
2022-11-27T19:49:24.191Z,20.83
2022-11-27T19:51:52.382Z,19.87
2022-11-27T19:54:21.937Z,19.87
2022-11-27T19:56:50.083Z,21.67
2022-11-27T19:59:25.387Z,16.20
2022-11-27T20:01:54.168Z,18.80
2022-11-27T20:04:22.512Z,14.80
2022-11-27T20:06:52.913Z,14.40
2022-11-27T20:09:21.105Z,13.73
2022-11-27T20:11:49.312Z,11.77
2022-11-27T20:14:17.444Z,10.80
2022-11-27T20:16:47.038Z,10.40
2022-11-27T20:19:15.297Z,10.73
2022-11-27T20:21:44.461Z,9.23
2022-11-27T20:24:12.955Z,8.50
2022-11-27T20:26:42.950Z,9.40
2022-11-27T20:29:12.284Z,8.20
2022-11-27T20:31:42.052Z,8.23
2022-11-27T20:34:17.873Z,8.57
2022-11-27T20:36:46.332Z,7.70
2022-11-27T20:39:20.556Z,9.00
2022-11-27T20:41:50.446Z,7.87
2022-11-27T20:44:18.522Z,8.40
2022-11-27T20:46:46.604Z,8.63
2022-11-27T20:49:16.395Z,9.33
2022-11-27T20:51:44.506Z,10.30
2022-11-27T20:54:12.938Z,9.20
2022-11-27T20:56:43.373Z,9.53
2022-11-27T20:59:12.572Z,8.40
2022-11-27T21:01:42.624Z,7.60
2022-11-27T21:04:21.295Z,8.50
2022-11-27T21:06:50.196Z,7.90
2022-11-27T21:09:19.042Z,8.47
2022-11-27T21:11:48.272Z,8.33
2022-11-27T21:14:18.297Z,8.80
2022-11-27T21:16:49.074Z,7.43
2022-11-27T21:19:21.243Z,7.17
2022-11-27T21:21:49.933Z,7.57
2022-11-27T21:24:19.079Z,6.53
2022-11-27T21:26:48.294Z,7.37
2022-11-27T21:29:16.899Z,7.60
2022-11-27T21:31:47.451Z,6.30
2022-11-27T21:34:16.516Z,6.93
2022-11-27T21:36:46.093Z,6.20
2022-11-27T21:39:20.558Z,6.83
2022-11-27T21:41:49.900Z,7.40
2022-11-27T21:44:18.243Z,8.30
2022-11-27T21:46:46.953Z,8.03
2022-11-27T21:49:16.740Z,7.90
2022-11-27T21:51:46.571Z,7.20
2022-11-27T21:54:16.014Z,7.60
2022-11-27T21:56:44.089Z,7.27
2022-11-27T21:59:14.031Z,7.63
2022-11-27T22:01:42.240Z,7.80
2022-11-27T22:04:10.412Z,8.80
2022-11-27T22:06:40.968Z,8.47
2022-11-27T22:09:15.357Z,7.77
2022-11-27T22:11:45.012Z,7.50
2022-11-27T22:14:14.214Z,7.03
2022-11-27T22:16:45.675Z,7.87
2022-11-27T22:19:15.568Z,8.07
2022-11-27T22:21:44.317Z,8.23
2022-11-27T22:24:18.846Z,7.37
2022-11-27T22:26:48.079Z,7.10
2022-11-27T22:29:16.398Z,8.37
2022-11-27T22:31:44.523Z,8.83
2022-11-27T22:34:12.762Z,8.80
2022-11-27T22:36:40.837Z,7.70
2022-11-27T22:39:09.838Z,8.70
2022-11-27T22:41:40.394Z,7.97
2022-11-27T22:44:08.911Z,8.70
2022-11-27T22:46:38.452Z,7.27
2022-11-27T22:49:07.745Z,8.90
2022-11-27T22:51:37.809Z,8.90
2022-11-27T22:54:07.554Z,8.70
2022-11-27T22:56:36.343Z,7.60
2022-11-27T22:59:31.020Z,7.40
2022-11-27T23:01:55.721Z,8.20
2022-11-27T23:04:23.741Z,7.80
2022-11-27T23:06:51.805Z,8.13
2022-11-27T23:09:20.073Z,9.03
2022-11-27T23:11:48.586Z,7.87
2022-11-27T23:14:18.444Z,8.70
2022-11-27T23:16:47.404Z,8.83
2022-11-27T23:19:15.530Z,7.40
2022-11-27T23:21:43.691Z,8.57
2022-11-27T23:24:15.341Z,8.97
2022-11-27T23:26:43.966Z,8.57
2022-11-27T23:29:12.021Z,8.47
2022-11-27T23:31:41.948Z,7.40
2022-11-27T23:34:13.269Z,7.77
2022-11-27T23:36:41.444Z,7.43
2022-11-27T23:39:12.533Z,6.60
2022-11-27T23:41:41.018Z,8.00
2022-11-27T23:44:09.076Z,7.70
2022-11-27T23:46:37.184Z,8.37
2022-11-27T23:49:06.702Z,7.83
2022-11-27T23:51:35.276Z,7.57
2022-11-27T23:54:03.350Z,7.30
2022-11-27T23:56:33.116Z,7.57
2022-11-27T23:59:02.146Z,7.17
